sensor_id;sensor_type;location;lat;lon;timestamp;temperature;humidity
37806;DHT22;25082;50.870;0.022;2023-12-22T00:01:14;18.90;66.50
37806;DHT22;25082;50.870;0.022;2023-12-22T00:03:43;18.90;66.50
37806;DHT22;25082;50.870;0.022;2023-12-22T00:06:11;18.90;66.50
37806;DHT22;25082;50.870;0.022;2023-12-22T00:08:38;18.90;66.70
37806;DHT22;25082;50.870;0.022;2023-12-22T00:11:04;18.80;66.40
37806;DHT22;25082;50.870;0.022;2023-12-22T00:13:29;18.80;66.40
37806;DHT22;25082;50.870;0.022;2023-12-22T00:15:55;18.90;66.50
37806;DHT22;25082;50.870;0.022;2023-12-22T00:18:21;18.80;66.40
37806;DHT22;25082;50.870;0.022;2023-12-22T00:20:47;18.80;66.30
37806;DHT22;25082;50.870;0.022;2023-12-22T00:23:13;18.80;66.30
37806;DHT22;25082;50.870;0.022;2023-12-22T00:25:38;18.80;66.30
37806;DHT22;25082;50.870;0.022;2023-12-22T00:28:04;18.80;66.30
37806;DHT22;25082;50.870;0.022;2023-12-22T00:30:30;18.80;66.20
37806;DHT22;25082;50.870;0.022;2023-12-22T00:32:56;18.80;66.20
37806;DHT22;25082;50.870;0.022;2023-12-22T00:35:21;18.80;66.20
37806;DHT22;25082;50.870;0.022;2023-12-22T00:37:47;18.80;66.20
37806;DHT22;25082;50.870;0.022;2023-12-22T00:40:13;18.70;66.10
37806;DHT22;25082;50.870;0.022;2023-12-22T00:42:38;18.80;66.20
37806;DHT22;25082;50.870;0.022;2023-12-22T00:45:05;18.70;66.20
37806;DHT22;25082;50.870;0.022;2023-12-22T00:47:30;18.80;66.20
37806;DHT22;25082;50.870;0.022;2023-12-22T00:49:56;18.80;66.10
37806;DHT22;25082;50.870;0.022;2023-12-22T00:52:22;18.70;66.00
37806;DHT22;25082;50.870;0.022;2023-12-22T00:54:48;18.70;66.00
37806;DHT22;25082;50.870;0.022;2023-12-22T00:57:14;18.70;66.10
37806;DHT22;25082;50.870;0.022;2023-12-22T00:59:40;18.70;66.20
37806;DHT22;25082;50.870;0.022;2023-12-22T01:02:17;18.70;66.10
37806;DHT22;25082;50.870;0.022;2023-12-22T01:04:43;18.80;66.10
37806;DHT22;25082;50.870;0.022;2023-12-22T01:07:10;18.70;66.10
37806;DHT22;25082;50.870;0.022;2023-12-22T01:09:36;18.70;66.20
37806;DHT22;25082;50.870;0.022;2023-12-22T01:12:04;18.70;66.20
37806;DHT22;25082;50.870;0.022;2023-12-22T01:14:30;18.70;66.40
37806;DHT22;25082;50.870;0.022;2023-12-22T01:16:56;18.70;66.30
37806;DHT22;25082;50.870;0.022;2023-12-22T01:19:22;18.70;66.40
37806;DHT22;25082;50.870;0.022;2023-12-22T01:21:48;18.70;66.30
37806;DHT22;25082;50.870;0.022;2023-12-22T01:24:15;18.70;66.40
37806;DHT22;25082;50.870;0.022;2023-12-22T01:26:40;18.60;66.40
37806;DHT22;25082;50.870;0.022;2023-12-22T01:29:06;18.70;66.40
37806;DHT22;25082;50.870;0.022;2023-12-22T01:31:32;18.60;66.40
37806;DHT22;25082;50.870;0.022;2023-12-22T01:33:57;18.60;66.40
37806;DHT22;25082;50.870;0.022;2023-12-22T01:36:23;18.60;66.60
37806;DHT22;25082;50.870;0.022;2023-12-22T01:38:49;18.60;66.50
37806;DHT22;25082;50.870;0.022;2023-12-22T01:41:15;18.60;66.50
37806;DHT22;25082;50.870;0.022;2023-12-22T01:43:40;18.60;66.50
37806;DHT22;25082;50.870;0.022;2023-12-22T01:46:08;18.60;66.50
37806;DHT22;25082;50.870;0.022;2023-12-22T01:48:35;18.60;66.70
37806;DHT22;25082;50.870;0.022;2023-12-22T01:51:02;18.60;66.40
37806;DHT22;25082;50.870;0.022;2023-12-22T01:53:30;18.60;66.50
37806;DHT22;25082;50.870;0.022;2023-12-22T01:55:56;18.60;66.60
37806;DHT22;25082;50.870;0.022;2023-12-22T01:58:24;18.60;66.50
37806;DHT22;25082;50.870;0.022;2023-12-22T02:00:50;18.60;66.40
37806;DHT22;25082;50.870;0.022;2023-12-22T02:03:18;18.60;66.40
37806;DHT22;25082;50.870;0.022;2023-12-22T02:05:46;18.60;66.40
37806;DHT22;25082;50.870;0.022;2023-12-22T02:08:12;18.60;66.10
37806;DHT22;25082;50.870;0.022;2023-12-22T02:10:39;18.50;66.10
37806;DHT22;25082;50.870;0.022;2023-12-22T02:13:05;18.60;66.30
37806;DHT22;25082;50.870;0.022;2023-12-22T02:15:31;18.60;66.30
37806;DHT22;25082;50.870;0.022;2023-12-22T02:18:07;18.50;66.00
37806;DHT22;25082;50.870;0.022;2023-12-22T02:20:35;18.60;66.10
37806;DHT22;25082;50.870;0.022;2023-12-22T02:23:01;18.60;66.30
37806;DHT22;25082;50.870;0.022;2023-12-22T02:25:26;18.50;66.00
37806;DHT22;25082;50.870;0.022;2023-12-22T02:28:02;18.50;66.10
37806;DHT22;25082;50.870;0.022;2023-12-22T02:33:15;18.50;66.00
37806;DHT22;25082;50.870;0.022;2023-12-22T02:35:42;18.50;66.00
37806;DHT22;25082;50.870;0.022;2023-12-22T02:38:10;18.50;66.00
37806;DHT22;25082;50.870;0.022;2023-12-22T02:40:37;18.50;66.00
37806;DHT22;25082;50.870;0.022;2023-12-22T02:43:05;18.50;66.10
37806;DHT22;25082;50.870;0.022;2023-12-22T02:45:31;18.50;66.00
37806;DHT22;25082;50.870;0.022;2023-12-22T02:47:57;18.50;66.10
37806;DHT22;25082;50.870;0.022;2023-12-22T02:50:23;18.50;66.10
37806;DHT22;25082;50.870;0.022;2023-12-22T02:52:49;18.50;66.10
37806;DHT22;25082;50.870;0.022;2023-12-22T02:55:15;18.50;66.10
37806;DHT22;25082;50.870;0.022;2023-12-22T02:57:41;18.40;66.00
37806;DHT22;25082;50.870;0.022;2023-12-22T03:00:07;18.40;66.00
37806;DHT22;25082;50.870;0.022;2023-12-22T03:02:33;18.50;66.10
37806;DHT22;25082;50.870;0.022;2023-12-22T03:05:02;18.40;65.90
37806;DHT22;25082;50.870;0.022;2023-12-22T03:07:27;18.40;66.00
37806;DHT22;25082;50.870;0.022;2023-12-22T03:09:53;18.40;66.10
37806;DHT22;25082;50.870;0.022;2023-12-22T03:12:19;18.40;66.00
37806;DHT22;25082;50.870;0.022;2023-12-22T03:14:44;18.40;66.10
37806;DHT22;25082;50.870;0.022;2023-12-22T03:17:10;18.40;66.00
37806;DHT22;25082;50.870;0.022;2023-12-22T03:19:36;18.40;66.00
37806;DHT22;25082;50.870;0.022;2023-12-22T03:22:02;18.40;66.00
37806;DHT22;25082;50.870;0.022;2023-12-22T03:24:28;18.40;66.10
37806;DHT22;25082;50.870;0.022;2023-12-22T03:26:54;18.40;66.00
37806;DHT22;25082;50.870;0.022;2023-12-22T03:29:20;18.40;66.00
37806;DHT22;25082;50.870;0.022;2023-12-22T03:31:46;18.40;66.00
37806;DHT22;25082;50.870;0.022;2023-12-22T03:34:13;18.40;66.10
37806;DHT22;25082;50.870;0.022;2023-12-22T03:36:39;18.40;66.00
37806;DHT22;25082;50.870;0.022;2023-12-22T03:39:05;18.40;66.00
37806;DHT22;25082;50.870;0.022;2023-12-22T03:41:31;18.40;66.00
37806;DHT22;25082;50.870;0.022;2023-12-22T03:43:57;18.40;66.10
37806;DHT22;25082;50.870;0.022;2023-12-22T03:46:24;18.40;66.00
37806;DHT22;25082;50.870;0.022;2023-12-22T03:49:02;18.40;66.10
37806;DHT22;25082;50.870;0.022;2023-12-22T03:51:28;18.40;66.00
37806;DHT22;25082;50.870;0.022;2023-12-22T03:53:53;18.40;66.10
37806;DHT22;25082;50.870;0.022;2023-12-22T03:56:19;18.40;66.10
37806;DHT22;25082;50.870;0.022;2023-12-22T03:58:45;18.40;66.10
37806;DHT22;25082;50.870;0.022;2023-12-22T04:01:14;18.40;66.10
37806;DHT22;25082;50.870;0.022;2023-12-22T04:03:40;18.40;66.10
37806;DHT22;25082;50.870;0.022;2023-12-22T04:06:06;18.40;66.10
37806;DHT22;25082;50.870;0.022;2023-12-22T04:08:32;18.30;66.00
37806;DHT22;25082;50.870;0.022;2023-12-22T04:10:58;18.30;66.00
37806;DHT22;25082;50.870;0.022;2023-12-22T04:13:24;18.30;66.00
37806;DHT22;25082;50.870;0.022;2023-12-22T04:15:49;18.30;66.00
37806;DHT22;25082;50.870;0.022;2023-12-22T04:18:15;18.30;66.00
37806;DHT22;25082;50.870;0.022;2023-12-22T04:20:41;18.30;66.10
37806;DHT22;25082;50.870;0.022;2023-12-22T04:23:07;18.30;66.10
37806;DHT22;25082;50.870;0.022;2023-12-22T04:25:32;18.30;66.10
37806;DHT22;25082;50.870;0.022;2023-12-22T04:27:58;18.30;66.00
37806;DHT22;25082;50.870;0.022;2023-12-22T04:30:29;18.30;66.10
37806;DHT22;25082;50.870;0.022;2023-12-22T04:32:55;18.30;66.00
37806;DHT22;25082;50.870;0.022;2023-12-22T04:35:21;18.30;66.00
37806;DHT22;25082;50.870;0.022;2023-12-22T04:37:47;18.30;66.10
37806;DHT22;25082;50.870;0.022;2023-12-22T04:40:13;18.30;66.10
37806;DHT22;25082;50.870;0.022;2023-12-22T04:42:38;18.30;66.10
37806;DHT22;25082;50.870;0.022;2023-12-22T04:45:04;18.30;66.10
37806;DHT22;25082;50.870;0.022;2023-12-22T04:47:30;18.30;66.10
37806;DHT22;25082;50.870;0.022;2023-12-22T04:49:56;18.20;66.00
37806;DHT22;25082;50.870;0.022;2023-12-22T04:52:22;18.30;66.00
37806;DHT22;25082;50.870;0.022;2023-12-22T04:54:47;18.20;66.10
37806;DHT22;25082;50.870;0.022;2023-12-22T04:57:13;18.30;66.10
37806;DHT22;25082;50.870;0.022;2023-12-22T04:59:39;18.30;66.10
37806;DHT22;25082;50.870;0.022;2023-12-22T05:02:04;18.30;66.00
37806;DHT22;25082;50.870;0.022;2023-12-22T05:04:30;18.20;66.10
37806;DHT22;25082;50.870;0.022;2023-12-22T05:06:56;18.20;66.00
37806;DHT22;25082;50.870;0.022;2023-12-22T05:09:23;18.20;66.00
37806;DHT22;25082;50.870;0.022;2023-12-22T05:11:50;18.20;66.00
37806;DHT22;25082;50.870;0.022;2023-12-22T05:14:16;18.20;66.00
37806;DHT22;25082;50.870;0.022;2023-12-22T05:16:42;18.20;66.00
37806;DHT22;25082;50.870;0.022;2023-12-22T05:19:07;18.20;66.00
37806;DHT22;25082;50.870;0.022;2023-12-22T05:21:34;18.20;66.00
37806;DHT22;25082;50.870;0.022;2023-12-22T05:24:00;18.20;66.00
37806;DHT22;25082;50.870;0.022;2023-12-22T05:26:25;18.20;66.00
37806;DHT22;25082;50.870;0.022;2023-12-22T05:28:55;18.20;66.00
37806;DHT22;25082;50.870;0.022;2023-12-22T05:31:21;18.20;66.10
37806;DHT22;25082;50.870;0.022;2023-12-22T05:33:47;18.20;66.10
37806;DHT22;25082;50.870;0.022;2023-12-22T05:36:13;18.20;66.00
37806;DHT22;25082;50.870;0.022;2023-12-22T05:38:39;18.20;66.10
37806;DHT22;25082;50.870;0.022;2023-12-22T05:41:05;18.20;66.10
37806;DHT22;25082;50.870;0.022;2023-12-22T05:43:34;18.20;66.10
37806;DHT22;25082;50.870;0.022;2023-12-22T05:46:00;18.20;66.10
37806;DHT22;25082;50.870;0.022;2023-12-22T05:48:26;18.20;66.10
37806;DHT22;25082;50.870;0.022;2023-12-22T05:50:53;18.10;66.00
37806;DHT22;25082;50.870;0.022;2023-12-22T05:53:19;18.20;66.10
37806;DHT22;25082;50.870;0.022;2023-12-22T05:55:45;18.10;66.10
37806;DHT22;25082;50.870;0.022;2023-12-22T05:58:11;18.10;66.10
37806;DHT22;25082;50.870;0.022;2023-12-22T06:00:36;18.10;66.10
37806;DHT22;25082;50.870;0.022;2023-12-22T06:03:03;18.20;66.10
37806;DHT22;25082;50.870;0.022;2023-12-22T06:05:29;18.10;66.00
37806;DHT22;25082;50.870;0.022;2023-12-22T06:07:55;18.20;66.10
37806;DHT22;25082;50.870;0.022;2023-12-22T06:10:21;18.10;66.00
37806;DHT22;25082;50.870;0.022;2023-12-22T06:12:47;18.20;66.10
37806;DHT22;25082;50.870;0.022;2023-12-22T06:15:12;18.10;66.00
37806;DHT22;25082;50.870;0.022;2023-12-22T06:17:38;18.10;66.00
37806;DHT22;25082;50.870;0.022;2023-12-22T06:20:04;18.10;66.10
37806;DHT22;25082;50.870;0.022;2023-12-22T06:22:30;18.10;66.10
37806;DHT22;25082;50.870;0.022;2023-12-22T06:24:56;18.10;66.10
37806;DHT22;25082;50.870;0.022;2023-12-22T06:27:22;18.10;66.10
37806;DHT22;25082;50.870;0.022;2023-12-22T06:29:47;18.10;66.10
37806;DHT22;25082;50.870;0.022;2023-12-22T06:32:13;18.10;66.10
37806;DHT22;25082;50.870;0.022;2023-12-22T06:34:39;18.10;66.10
37806;DHT22;25082;50.870;0.022;2023-12-22T06:37:04;18.10;66.10
37806;DHT22;25082;50.870;0.022;2023-12-22T06:39:33;18.10;66.10
37806;DHT22;25082;50.870;0.022;2023-12-22T06:41:58;18.10;66.10
37806;DHT22;25082;50.870;0.022;2023-12-22T06:44:24;18.10;66.10
37806;DHT22;25082;50.870;0.022;2023-12-22T06:46:51;18.10;66.10
37806;DHT22;25082;50.870;0.022;2023-12-22T06:49:17;18.10;66.10
37806;DHT22;25082;50.870;0.022;2023-12-22T06:51:42;18.10;66.10
37806;DHT22;25082;50.870;0.022;2023-12-22T06:54:08;18.10;66.10
37806;DHT22;25082;50.870;0.022;2023-12-22T06:56:35;18.00;66.00
37806;DHT22;25082;50.870;0.022;2023-12-22T06:59:01;18.00;66.10
37806;DHT22;25082;50.870;0.022;2023-12-22T07:01:30;18.00;66.10
37806;DHT22;25082;50.870;0.022;2023-12-22T07:03:57;18.00;66.00
37806;DHT22;25082;50.870;0.022;2023-12-22T07:06:23;18.10;66.10
37806;DHT22;25082;50.870;0.022;2023-12-22T07:11:41;18.00;66.00
37806;DHT22;25082;50.870;0.022;2023-12-22T07:14:07;18.00;65.80
37806;DHT22;25082;50.870;0.022;2023-12-22T07:16:34;18.10;65.90
37806;DHT22;25082;50.870;0.022;2023-12-22T07:19:00;18.10;65.70
37806;DHT22;25082;50.870;0.022;2023-12-22T07:21:26;18.10;65.60
37806;DHT22;25082;50.870;0.022;2023-12-22T07:23:52;18.10;65.50
37806;DHT22;25082;50.870;0.022;2023-12-22T07:26:17;18.10;65.40
37806;DHT22;25082;50.870;0.022;2023-12-22T07:28:43;18.20;65.40
37806;DHT22;25082;50.870;0.022;2023-12-22T07:31:09;18.20;65.40
37806;DHT22;25082;50.870;0.022;2023-12-22T07:33:35;18.20;65.40
37806;DHT22;25082;50.870;0.022;2023-12-22T07:36:00;18.30;65.40
37806;DHT22;25082;50.870;0.022;2023-12-22T07:38:26;18.30;65.40
37806;DHT22;25082;50.870;0.022;2023-12-22T07:40:52;18.30;65.40
37806;DHT22;25082;50.870;0.022;2023-12-22T07:43:18;18.30;65.40
37806;DHT22;25082;50.870;0.022;2023-12-22T07:45:44;18.30;65.40
37806;DHT22;25082;50.870;0.022;2023-12-22T07:48:10;18.30;65.40
37806;DHT22;25082;50.870;0.022;2023-12-22T07:50:35;18.30;65.40
37806;DHT22;25082;50.870;0.022;2023-12-22T07:53:01;18.30;65.40
37806;DHT22;25082;50.870;0.022;2023-12-22T07:55:27;18.40;65.40
37806;DHT22;25082;50.870;0.022;2023-12-22T07:57:53;18.40;65.40
37806;DHT22;25082;50.870;0.022;2023-12-22T08:00:19;18.40;65.50
37806;DHT22;25082;50.870;0.022;2023-12-22T08:02:44;18.40;65.50
37806;DHT22;25082;50.870;0.022;2023-12-22T08:05:10;18.40;65.50
37806;DHT22;25082;50.870;0.022;2023-12-22T08:07:36;18.40;65.50
37806;DHT22;25082;50.870;0.022;2023-12-22T08:10:03;18.40;65.50
37806;DHT22;25082;50.870;0.022;2023-12-22T08:12:29;18.40;65.50
37806;DHT22;25082;50.870;0.022;2023-12-22T08:14:55;18.40;65.50
37806;DHT22;25082;50.870;0.022;2023-12-22T08:17:20;18.50;65.60
37806;DHT22;25082;50.870;0.022;2023-12-22T08:19:46;18.40;65.50
37806;DHT22;25082;50.870;0.022;2023-12-22T08:22:12;18.50;65.50
37806;DHT22;25082;50.870;0.022;2023-12-22T08:24:38;18.50;65.50
37806;DHT22;25082;50.870;0.022;2023-12-22T08:27:07;18.50;66.10
37806;DHT22;25082;50.870;0.022;2023-12-22T08:29:33;18.50;65.50
37806;DHT22;25082;50.870;0.022;2023-12-22T08:32:00;18.50;65.50
37806;DHT22;25082;50.870;0.022;2023-12-22T08:34:26;18.50;65.50
37806;DHT22;25082;50.870;0.022;2023-12-22T08:36:52;18.50;65.60
37806;DHT22;25082;50.870;0.022;2023-12-22T08:39:18;18.50;65.50
37806;DHT22;25082;50.870;0.022;2023-12-22T08:41:45;18.50;65.50
37806;DHT22;25082;50.870;0.022;2023-12-22T08:44:10;18.60;65.50
37806;DHT22;25082;50.870;0.022;2023-12-22T08:46:36;18.50;65.50
37806;DHT22;25082;50.870;0.022;2023-12-22T08:49:02;18.60;65.60
37806;DHT22;25082;50.870;0.022;2023-12-22T08:51:29;18.60;65.60
37806;DHT22;25082;50.870;0.022;2023-12-22T08:53:55;18.60;65.60
37806;DHT22;25082;50.870;0.022;2023-12-22T08:56:22;18.60;65.50
37806;DHT22;25082;50.870;0.022;2023-12-22T08:58:48;18.60;65.50
37806;DHT22;25082;50.870;0.022;2023-12-22T09:01:20;18.60;65.50
37806;DHT22;25082;50.870;0.022;2023-12-22T09:03:46;18.60;65.50
37806;DHT22;25082;50.870;0.022;2023-12-22T09:06:16;18.60;65.40
37806;DHT22;25082;50.870;0.022;2023-12-22T09:08:42;18.70;65.50
37806;DHT22;25082;50.870;0.022;2023-12-22T09:11:10;18.70;65.50
37806;DHT22;25082;50.870;0.022;2023-12-22T09:13:36;18.70;65.50
37806;DHT22;25082;50.870;0.022;2023-12-22T09:16:03;18.70;65.50
37806;DHT22;25082;50.870;0.022;2023-12-22T09:18:29;18.70;65.40
37806;DHT22;25082;50.870;0.022;2023-12-22T09:20:54;18.70;65.40
37806;DHT22;25082;50.870;0.022;2023-12-22T09:23:20;18.70;65.30
37806;DHT22;25082;50.870;0.022;2023-12-22T09:25:49;18.70;65.30
37806;DHT22;25082;50.870;0.022;2023-12-22T09:28:15;18.70;65.30
37806;DHT22;25082;50.870;0.022;2023-12-22T09:30:41;18.70;65.30
37806;DHT22;25082;50.870;0.022;2023-12-22T09:33:09;18.80;65.30
37806;DHT22;25082;50.870;0.022;2023-12-22T09:35:35;18.80;65.30
37806;DHT22;25082;50.870;0.022;2023-12-22T09:38:01;18.80;65.30
37806;DHT22;25082;50.870;0.022;2023-12-22T09:40:27;18.80;65.30
37806;DHT22;25082;50.870;0.022;2023-12-22T09:42:55;18.80;65.30
37806;DHT22;25082;50.870;0.022;2023-12-22T09:45:23;18.80;65.20
37806;DHT22;25082;50.870;0.022;2023-12-22T09:47:51;18.90;65.30
37806;DHT22;25082;50.870;0.022;2023-12-22T09:50:20;18.90;65.20
37806;DHT22;25082;50.870;0.022;2023-12-22T09:52:47;18.90;65.20
37806;DHT22;25082;50.870;0.022;2023-12-22T09:55:13;18.90;65.20
37806;DHT22;25082;50.870;0.022;2023-12-22T09:57:39;18.90;65.20
37806;DHT22;25082;50.870;0.022;2023-12-22T10:00:09;18.90;65.20
37806;DHT22;25082;50.870;0.022;2023-12-22T10:02:36;19.00;65.20
37806;DHT22;25082;50.870;0.022;2023-12-22T10:05:02;18.90;65.10
37806;DHT22;25082;50.870;0.022;2023-12-22T10:07:30;19.00;65.10
37806;DHT22;25082;50.870;0.022;2023-12-22T10:09:57;19.00;65.10
37806;DHT22;25082;50.870;0.022;2023-12-22T10:12:24;19.00;65.10
37806;DHT22;25082;50.870;0.022;2023-12-22T10:14:51;19.00;65.10
37806;DHT22;25082;50.870;0.022;2023-12-22T10:17:18;19.00;65.00
37806;DHT22;25082;50.870;0.022;2023-12-22T10:19:44;19.00;65.00
37806;DHT22;25082;50.870;0.022;2023-12-22T10:22:09;19.00;65.00
37806;DHT22;25082;50.870;0.022;2023-12-22T10:24:40;19.00;65.00
37806;DHT22;25082;50.870;0.022;2023-12-22T10:27:08;19.00;65.00
37806;DHT22;25082;50.870;0.022;2023-12-22T10:29:34;19.00;65.00
37806;DHT22;25082;50.870;0.022;2023-12-22T10:32:01;19.00;64.90
37806;DHT22;25082;50.870;0.022;2023-12-22T10:34:28;19.00;64.90
37806;DHT22;25082;50.870;0.022;2023-12-22T10:36:54;19.00;64.90
37806;DHT22;25082;50.870;0.022;2023-12-22T10:39:20;19.10;64.90
37806;DHT22;25082;50.870;0.022;2023-12-22T10:41:48;19.10;64.90
37806;DHT22;25082;50.870;0.022;2023-12-22T10:44:15;19.10;64.90
37806;DHT22;25082;50.870;0.022;2023-12-22T10:46:43;19.10;64.80
37806;DHT22;25082;50.870;0.022;2023-12-22T10:49:09;19.10;64.80
37806;DHT22;25082;50.870;0.022;2023-12-22T10:51:35;19.10;64.70
37806;DHT22;25082;50.870;0.022;2023-12-22T10:54:00;19.10;64.70
37806;DHT22;25082;50.870;0.022;2023-12-22T10:56:26;19.20;64.70
37806;DHT22;25082;50.870;0.022;2023-12-22T10:58:53;19.20;64.70
37806;DHT22;25082;50.870;0.022;2023-12-22T11:01:21;19.20;64.70
37806;DHT22;25082;50.870;0.022;2023-12-22T11:03:51;19.20;64.70
37806;DHT22;25082;50.870;0.022;2023-12-22T11:06:17;19.20;65.00
37806;DHT22;25082;50.870;0.022;2023-12-22T11:08:47;19.20;65.40
37806;DHT22;25082;50.870;0.022;2023-12-22T11:11:19;19.20;66.00
37806;DHT22;25082;50.870;0.022;2023-12-22T11:13:47;19.20;66.00
37806;DHT22;25082;50.870;0.022;2023-12-22T11:16:17;19.20;66.00
37806;DHT22;25082;50.870;0.022;2023-12-22T11:18:46;19.20;66.20
37806;DHT22;25082;50.870;0.022;2023-12-22T11:21:12;19.20;66.30
37806;DHT22;25082;50.870;0.022;2023-12-22T11:23:40;19.10;66.40
37806;DHT22;25082;50.870;0.022;2023-12-22T11:26:08;19.20;66.50
37806;DHT22;25082;50.870;0.022;2023-12-22T11:28:38;19.20;66.50
37806;DHT22;25082;50.870;0.022;2023-12-22T11:31:08;19.20;66.60
37806;DHT22;25082;50.870;0.022;2023-12-22T11:33:36;19.20;66.60
37806;DHT22;25082;50.870;0.022;2023-12-22T11:36:04;19.20;66.70
37806;DHT22;25082;50.870;0.022;2023-12-22T11:38:30;19.20;66.60
37806;DHT22;25082;50.870;0.022;2023-12-22T11:40:58;19.20;66.50
37806;DHT22;25082;50.870;0.022;2023-12-22T11:43:25;19.20;66.60
37806;DHT22;25082;50.870;0.022;2023-12-22T11:45:51;19.20;66.90
37806;DHT22;25082;50.870;0.022;2023-12-22T11:48:17;19.20;66.90
37806;DHT22;25082;50.870;0.022;2023-12-22T11:50:43;19.20;66.90
37806;DHT22;25082;50.870;0.022;2023-12-22T11:53:23;19.20;66.90
37806;DHT22;25082;50.870;0.022;2023-12-22T11:56:06;19.20;66.90
37806;DHT22;25082;50.870;0.022;2023-12-22T12:03:36;19.20;66.90
37806;DHT22;25082;50.870;0.022;2023-12-22T12:06:14;19.30;67.00
37806;DHT22;25082;50.870;0.022;2023-12-22T12:08:40;19.20;66.90
37806;DHT22;25082;50.870;0.022;2023-12-22T12:11:07;19.30;66.90
37806;DHT22;25082;50.870;0.022;2023-12-22T12:13:33;19.30;67.10
37806;DHT22;25082;50.870;0.022;2023-12-22T12:16:00;19.30;66.90
37806;DHT22;25082;50.870;0.022;2023-12-22T12:18:31;19.30;66.90
37806;DHT22;25082;50.870;0.022;2023-12-22T12:20:57;19.30;66.80
37806;DHT22;25082;50.870;0.022;2023-12-22T12:23:24;19.30;66.80
37806;DHT22;25082;50.870;0.022;2023-12-22T12:25:50;19.30;66.70
37806;DHT22;25082;50.870;0.022;2023-12-22T12:28:16;19.40;66.60
37806;DHT22;25082;50.870;0.022;2023-12-22T12:30:47;19.40;66.50
37806;DHT22;25082;50.870;0.022;2023-12-22T12:33:13;19.40;66.50
37806;DHT22;25082;50.870;0.022;2023-12-22T12:35:40;19.50;66.50
37806;DHT22;25082;50.870;0.022;2023-12-22T12:38:06;19.40;66.40
37806;DHT22;25082;50.870;0.022;2023-12-22T12:40:32;19.40;66.40
37806;DHT22;25082;50.870;0.022;2023-12-22T12:43:01;19.40;66.40
37806;DHT22;25082;50.870;0.022;2023-12-22T12:45:27;19.40;66.30
37806;DHT22;25082;50.870;0.022;2023-12-22T12:48:02;19.40;66.20
37806;DHT22;25082;50.870;0.022;2023-12-22T12:50:29;19.40;66.20
37806;DHT22;25082;50.870;0.022;2023-12-22T12:52:56;19.50;66.10
37806;DHT22;25082;50.870;0.022;2023-12-22T12:55:23;19.60;65.80
37806;DHT22;25082;50.870;0.022;2023-12-22T12:57:50;19.60;65.60
37806;DHT22;25082;50.870;0.022;2023-12-22T13:00:36;19.70;65.50
37806;DHT22;25082;50.870;0.022;2023-12-22T13:03:04;19.70;65.50
37806;DHT22;25082;50.870;0.022;2023-12-22T13:05:31;19.80;65.50
37806;DHT22;25082;50.870;0.022;2023-12-22T13:08:10;19.80;65.00
37806;DHT22;25082;50.870;0.022;2023-12-22T13:10:37;19.90;64.10
37806;DHT22;25082;50.870;0.022;2023-12-22T13:13:03;20.00;63.80
37806;DHT22;25082;50.870;0.022;2023-12-22T13:15:29;20.00;63.70
37806;DHT22;25082;50.870;0.022;2023-12-22T13:17:55;19.90;63.90
37806;DHT22;25082;50.870;0.022;2023-12-22T13:20:22;19.90;64.30
37806;DHT22;25082;50.870;0.022;2023-12-22T13:22:48;19.80;64.60
37806;DHT22;25082;50.870;0.022;2023-12-22T13:25:14;19.70;64.90
37806;DHT22;25082;50.870;0.022;2023-12-22T13:27:50;19.60;65.10
37806;DHT22;25082;50.870;0.022;2023-12-22T13:30:34;19.60;65.40
37806;DHT22;25082;50.870;0.022;2023-12-22T13:33:02;19.60;65.50
37806;DHT22;25082;50.870;0.022;2023-12-22T13:35:28;19.60;65.60
37806;DHT22;25082;50.870;0.022;2023-12-22T13:37:55;19.50;65.60
37806;DHT22;25082;50.870;0.022;2023-12-22T13:40:21;19.50;65.70
37806;DHT22;25082;50.870;0.022;2023-12-22T13:42:55;19.50;65.80
37806;DHT22;25082;50.870;0.022;2023-12-22T13:45:20;19.50;65.90
37806;DHT22;25082;50.870;0.022;2023-12-22T13:47:46;19.50;65.90
37806;DHT22;25082;50.870;0.022;2023-12-22T13:50:16;19.50;66.00
37806;DHT22;25082;50.870;0.022;2023-12-22T13:52:42;19.50;66.10
37806;DHT22;25082;50.870;0.022;2023-12-22T13:55:14;19.50;66.00
37806;DHT22;25082;50.870;0.022;2023-12-22T13:57:41;19.50;66.00
37806;DHT22;25082;50.870;0.022;2023-12-22T14:00:28;19.50;65.80
37806;DHT22;25082;50.870;0.022;2023-12-22T14:02:54;19.50;65.70
37806;DHT22;25082;50.870;0.022;2023-12-22T14:05:20;19.50;65.70
37806;DHT22;25082;50.870;0.022;2023-12-22T14:07:47;19.50;65.70
37806;DHT22;25082;50.870;0.022;2023-12-22T14:10:13;19.50;65.80
37806;DHT22;25082;50.870;0.022;2023-12-22T14:12:40;19.50;65.90
37806;DHT22;25082;50.870;0.022;2023-12-22T14:15:09;19.60;65.90
37806;DHT22;25082;50.870;0.022;2023-12-22T14:17:36;19.60;65.80
37806;DHT22;25082;50.870;0.022;2023-12-22T14:20:02;19.60;65.80
37806;DHT22;25082;50.870;0.022;2023-12-22T14:22:30;19.60;65.80
37806;DHT22;25082;50.870;0.022;2023-12-22T14:24:58;19.60;65.80
37806;DHT22;25082;50.870;0.022;2023-12-22T14:27:29;19.60;66.30
37806;DHT22;25082;50.870;0.022;2023-12-22T14:29:58;19.60;66.90
37806;DHT22;25082;50.870;0.022;2023-12-22T14:32:24;19.60;67.70
37806;DHT22;25082;50.870;0.022;2023-12-22T14:34:50;19.60;67.50
37806;DHT22;25082;50.870;0.022;2023-12-22T14:37:15;19.60;67.10
37806;DHT22;25082;50.870;0.022;2023-12-22T14:39:45;19.60;67.00
37806;DHT22;25082;50.870;0.022;2023-12-22T14:42:11;19.60;66.90
37806;DHT22;25082;50.870;0.022;2023-12-22T14:44:37;19.60;67.10
37806;DHT22;25082;50.870;0.022;2023-12-22T14:47:04;19.60;67.30
37806;DHT22;25082;50.870;0.022;2023-12-22T14:49:30;19.70;67.20
37806;DHT22;25082;50.870;0.022;2023-12-22T14:51:56;19.60;67.10
37806;DHT22;25082;50.870;0.022;2023-12-22T14:54:24;19.60;67.50
37806;DHT22;25082;50.870;0.022;2023-12-22T14:56:50;19.60;67.50
37806;DHT22;25082;50.870;0.022;2023-12-22T14:59:16;19.60;67.50
37806;DHT22;25082;50.870;0.022;2023-12-22T15:01:43;19.70;67.40
37806;DHT22;25082;50.870;0.022;2023-12-22T15:04:08;19.70;67.40
37806;DHT22;25082;50.870;0.022;2023-12-22T15:06:45;19.70;67.50
37806;DHT22;25082;50.870;0.022;2023-12-22T15:09:12;19.70;67.50
37806;DHT22;25082;50.870;0.022;2023-12-22T15:11:41;19.70;67.40
37806;DHT22;25082;50.870;0.022;2023-12-22T15:14:08;19.70;67.40
37806;DHT22;25082;50.870;0.022;2023-12-22T15:16:37;19.70;67.30
37806;DHT22;25082;50.870;0.022;2023-12-22T15:19:03;19.70;67.20
37806;DHT22;25082;50.870;0.022;2023-12-22T15:21:29;19.70;67.80
37806;DHT22;25082;50.870;0.022;2023-12-22T15:23:55;19.70;67.20
37806;DHT22;25082;50.870;0.022;2023-12-22T15:26:21;19.70;67.20
37806;DHT22;25082;50.870;0.022;2023-12-22T15:28:47;19.70;67.10
37806;DHT22;25082;50.870;0.022;2023-12-22T15:31:13;19.70;67.00
37806;DHT22;25082;50.870;0.022;2023-12-22T15:33:39;19.70;67.00
37806;DHT22;25082;50.870;0.022;2023-12-22T15:36:05;19.70;66.90
37806;DHT22;25082;50.870;0.022;2023-12-22T15:38:30;19.60;66.90